Latest Coastal Weather Observations for Cape Borda

IDT60701

Issued at 3:12 am EDT Friday 5 March 2021 (issued every 10 minutes, with the page automatically refreshed every 10 minutes)

About coastal observations | Map of coastal stations | Coastal observations for TAS | Marine services | Other Formats
Station Details ID: 022823 Name: CAPE BORDA Lat: -35.75 Lon: 136.60 Height: 158.0 m
Data from the previous 72 hours. | See also: Recent months at Cape Borda
Date/Time
EDT
Wind Sea
Height
m
Swell Vis
km
Cloud Weather Temp
°C
Press
MSL
hPa
Rain since
9am
mm
Dir  Spd
kts
Gust
kts
Height
m
Period
s
Dir
05/03:00am SE 9 13 - - - - - - - 15.1 1017.3 0.0
05/02:30am SE 9 14 - - - - - - - 15.1 1017.6 0.0
05/02:00am SE 12 17 - - - - - - - 15.1 1017.8 0.0
05/01:30am SE 8 15 - - - - - - - 15.1 1017.9 0.0
05/01:00am SE 11 16 - - - - - - - 15.2 1018.2 0.0
05/12:30am SE 10 13 - - - - - - - 15.2 1018.5 0.0
05/12:00am SE 11 15 - - - - - - - 15.1 1018.6 0.0
 
Date/Time
EDT
Wind Sea
Height
m
Swell Vis
km
Cloud Weather Temp
°C
Press
MSL
hPa
Rain since
9am
mm
Dir  Spd
kts
Gust
kts
Height
m
Period
s
Dir
04/11:30pm SSE 8 11 - - - - - - - 14.6 1018.9 0.0
04/11:00pm SSE 7 10 - - - - - - - 14.1 1019.0 0.0
04/10:30pm SSE 8 10 - - - - - - - 13.7 1019.0 0.0
04/10:00pm SSE 14 17 - - - - - - - 13.7 1018.7 0.0
04/09:30pm SSE 13 15 - - - - - - - 13.7 1018.6 0.0
04/09:00pm SE 14 18 - - - - - - - 14.3 1018.2 0.0
04/08:30pm SE 17 22 - - - - - - - 14.6 1018.1 0.0
04/08:00pm SSE 17 23 - - - - - - - 15.4 1018.2 0.0
04/07:30pm SSE 16 21 - - - - - - - 16.8 1018.3 0.0
04/07:00pm SSE 15 20 - - - - - - - 17.2 1018.1 0.0
04/06:30pm SSE 16 21 - - - - - - - 18.1 1018.2 0.0
04/06:00pm SSE 16 21 - - - - - - - 19.2 1018.0 0.0
04/05:30pm SSE 13 19 - - - - - - - 20.5 1018.0 0.0
04/05:00pm NE 7 10 - - - - - - - 20.0 1018.1 0.0
04/04:30pm NNE 7 10 - - - - - - - 19.8 1018.1 0.0
04/04:00pm N 6 8 - - - - - - - 20.2 1018.2 0.0
04/03:30pm WNW 7 9 - - - - - - - 19.2 1018.8 0.0
04/03:00pm N 8 11 - - - - - - - 19.3 1019.2 0.0
04/02:30pm NNW 7 9 - - - - - - - 18.5 1019.3 0.0
04/02:00pm NW 7 9 - - - - - - - 19.1 1019.6 0.0
04/01:30pm NW 7 10 - - - - - - - 18.1 1020.1 0.0
04/01:00pm WNW 8 11 - - - - - - - 17.8 1020.5 0.0
04/12:30pm NNW 8 10 - - - - - - - 18.2 1020.9 0.0
04/12:00pm ESE 6 10 - - - - - - - 18.2 1021.1 0.0
04/11:30am ESE 7 12 - - - - - - - 17.4 1021.4 0.0
04/11:00am SE 11 14 - - - - - - - 16.9 1021.0 0.0
04/10:30am ESE 11 15 - - - - - - - 16.1 1021.0 0.0
04/10:00am ESE 13 18 - - - - - - - 15.6 1020.7 0.0
04/09:30am SE 12 17 - - - - - - - 14.8 1020.6 0.0
04/09:00am SE 12 16 - - - - - - - 13.7 1020.7 0.0
04/08:30am SE 11 16 - - - - - - - 12.8 1020.8 0.0
04/08:00am SE 11 14 - - - - - - - 11.6 1020.4 0.0
04/07:30am SE 11 15 - - - - - - - 11.5 1020.1 0.0
04/07:00am SE 11 14 - - - - - - - 11.5 1020.0 0.0
04/06:30am SE 11 13 - - - - - - - 11.2 1020.0 0.0
04/06:00am SE 11 14 - - - - - - - 11.3 1020.0 0.0
04/05:30am SE 11 14 - - - - - - - 11.2 1019.9 0.0
04/05:00am SE 12 14 - - - - - - - 11.7 1019.8 0.0
04/04:30am SE 12 16 - - - - - - - 11.4 1019.7 0.0
04/04:00am SE 12 15 - - - - - - - 11.6 1019.7 0.0
04/03:30am SE 13 16 - - - - - - - 12.1 1019.9 0.0
04/03:00am SE 13 17 - - - - - - - 12.2 1019.9 0.0
04/02:30am SE 11 16 - - - - - - - 12.0 1020.3 0.0
04/02:00am SE 9 12 - - - - - - - 11.8 1020.9 0.0
04/01:30am SE 10 14 - - - - - - - 11.9 1021.1 0.0
04/01:00am SSE 7 10 - - - - - - - 11.6 1021.7 0.0
04/12:30am SE 7 10 - - - - - - - 12.0 1021.8 0.0
04/12:00am SSE 7 9 - - - - - - - 12.3 1021.8 0.0
 
Date/Time
EDT
Wind Sea
Height
m
Swell Vis
km
Cloud Weather Temp
°C
Press
MSL
hPa
Rain since
9am
mm
Dir  Spd
kts
Gust
kts
Height
m
Period
s
Dir
03/11:30pm SE 10 15 - - - - - - - 12.8 1021.9 0.0
03/11:00pm SE 10 16 - - - - - - - 13.0 1022.0 0.0
03/10:30pm SE 9 12 - - - - - - - 13.0 1021.8 0.0
03/10:00pm SE 11 17 - - - - - - - 13.4 1021.7 0.0
03/09:30pm SE 13 19 - - - - - - - 13.6 1021.4 0.0
03/09:00pm SE 16 22 - - - - - - - 14.0 1020.7 0.0
03/08:30pm SE 16 22 - - - - - - - 14.5 1020.4 0.0
03/08:00pm SE 16 22 - - - - - - - 15.4 1020.4 0.0
03/07:30pm SE 16 21 - - - - - - - 16.2 1020.4 0.0
03/07:00pm SE 16 21 - - - - - - - 17.3 1020.3 0.0
03/06:30pm SE 15 19 - - - - - - - 18.3 1020.2 0.0
03/06:00pm SE 14 19 - - - - - - - 18.9 1020.1 0.0
03/05:30pm SE 12 17 - - - - - - - 19.9 1020.0 0.0
03/05:00pm SE 12 19 - - - - - - - 19.8 1020.0 0.0
03/04:30pm ESE 11 16 - - - - - - - 20.0 1020.2 0.0
03/04:00pm ESE 12 26 - - - - - - - 20.2 1020.3 0.0
03/03:30pm SE 13 20 - - - - - - - 19.8 1020.5 0.0
03/03:00pm ESE 13 21 - - - - - - - 19.8 1020.8 0.0
03/02:30pm SE 13 21 - - - - - - - 19.8 1021.0 0.0
03/02:00pm SE 12 19 - - - - - - - 20.0 1021.4 0.0
03/01:30pm ESE 11 21 - - - - - - - 19.8 1021.7 0.0
03/01:00pm SE 14 19 - - - - - - - 19.1 1021.8 0.0
03/12:30pm SE 14 20 - - - - - - - 18.7 1022.2 0.0
03/12:00pm ESE 13 20 - - - - - - - 18.1 1022.4 0.0
03/11:30am SE 16 22 - - - - - - - 17.4 1022.0 0.0
03/11:00am ESE 15 21 - - - - - - - 17.2 1021.9 0.0
03/10:30am SE 15 19 - - - - - - - 16.9 1021.9 0.0
03/10:00am ESE 14 20 - - - - - - - 16.0 1021.9 0.0
03/09:30am ESE 15 22 - - - - - - - 15.1 1021.8 -
03/09:00am SE 16 22 - - - - - - - 14.1 1021.6 -
03/08:30am SE 14 19 - - - - - - - 13.1 1021.0 -
03/08:00am ESE 13 18 - - - - - - - 12.4 1020.4 -
03/07:30am SE 13 19 - - - - - - - 12.4 1019.9 -
03/07:00am SE 15 21 - - - - - - - 12.6 1019.5 -
03/06:30am SE 13 17 - - - - - - - 12.3 1019.0 -
03/06:00am SE 13 18 - - - - - - - 12.5 1018.8 -
03/05:30am SE 14 18 - - - - - - - 12.5 1018.8 -
03/05:00am SE 14 18 - - - - - - - 12.6 1018.7 -
03/04:30am SE 14 19 - - - - - - - 12.6 1018.7 -
03/04:00am SE 14 19 - - - - - - - 12.6 1018.9 -
03/03:30am SE 13 19 - - - - - - - 12.6 1019.2 0.0
03/03:00am SE 13 17 - - - - - - - 12.7 1019.2 -
03/02:30am SE 13 19 - - - - - - - 12.9 1019.4 -
03/02:00am SE 13 17 - - - - - - - 12.9 1019.7 -
03/01:30am SE 13 18 - - - - - - - 13.1 1019.5 -
03/01:00am SE 14 19 - - - - - - - 13.2 1019.2 -
03/12:30am SE 15 22 - - - - - - - 13.4 1019.0 -
03/12:00am SE 15 21 - - - - - - - 13.5 1019.1 -
 
Date/Time
EDT
Wind Sea
Height
m
Swell Vis
km
Cloud Weather Temp
°C
Press
MSL
hPa
Rain since
9am
mm
Dir  Spd
kts
Gust
kts
Height
m
Period
s
Dir
02/11:30pm SE 14 20 - - - - - - - 13.5 1019.4 -
02/11:00pm SE 13 19 - - - - - - - 13.8 1019.8 -
02/10:30pm SE 11 16 - - - - - - - 13.7 1019.8 -
02/10:00pm ESE 9 16 - - - - - - - 13.7 1020.1 -
02/09:30pm SE 14 22 - - - - - - - 13.9 1019.6 -
02/09:00pm SE 15 21 - - - - - - - 13.9 1019.1 -
02/08:30pm SE 17 23 - - - - - - - 14.1 1019.0 -
02/08:07pm SE 17 27 - - - - - - - 14.4 1019.1 -
02/08:00pm SE 18 24 - - - - - - - 14.7 1019.0 -
02/07:30pm SE 18 24 - - - - - - - 15.1 1018.6 -
02/07:00pm SE 17 22 - - - - - - - 16.0 1018.3 -
02/06:30pm SE 16 22 - - - - - - - 16.2 1018.3 -
02/06:00pm SE 16 21 - - - - - - - 16.9 1018.3 -
02/05:30pm SE 15 20 - - - - - - - 17.5 1018.6 -
02/05:00pm - - - - - - - - - - 18.3 1018.4 -
02/04:00pm SE 12 18 - - - - - - - 19.0 1018.8 0.0
02/03:30pm ESE 11 19 - - - - - - - 20.5 1018.7 0.0
02/03:00pm ESE 11 16 - - - - - - - 19.5 1019.0 0.0
02/02:30pm SE 13 18 - - - - - - - 19.5 1018.7 0.0
02/02:00pm ESE 13 20 - - - - - - - 19.0 1018.9 0.0
02/01:30pm E 11 16 - - - - - - - 18.9 1019.4 0.0
02/01:00pm ESE 14 19 - - - - - - - 18.5 1019.5 0.0
02/12:30pm ESE 14 19 - - - - - - - 17.8 1019.9 0.0
02/12:00pm ESE 14 20 - - - - - - - 17.0 1020.1 0.0
02/11:30am ESE 15 21 - - - - - - - 16.5 1020.3 0.0
02/11:00am E 12 18 - - - - - - - 16.2 1020.8 0.0
02/10:30am ESE 15 21 - - - - - - - 15.4 1020.7 0.0
02/10:00am ESE 12 16 - - - - - - - 15.1 1020.5 0.0
02/09:30am ESE 10 14 - - - - - - - 14.1 1020.6 0.0
02/09:00am ESE 9 12 - - - - - - - 13.0 1020.2 0.0
02/08:30am ESE 6 8 - - - - - - - 11.5 1019.7 0.0
02/08:00am ESE 6 8 - - - - - - - 11.0 1019.3 0.0
02/07:30am ESE 7 10 - - - - - - - 11.4 1019.0 0.0
02/07:00am ESE 10 14 - - - - - - - 11.6 1018.8 0.0
02/06:30am ESE 6 7 - - - - - - - 10.4 1018.8 0.0
02/06:00am ESE 6 7 - - - - - - - 11.5 1019.0 0.0
02/05:30am E 6 8 - - - - - - - 10.9 1019.1 0.0
02/05:00am ESE 9 13 - - - - - - - 11.7 1019.0 0.0
02/04:30am ESE 7 11 - - - - - - - 11.5 1019.0 0.0
02/04:00am ESE 8 13 - - - - - - - 11.4 1018.9 0.0

Other formats

Comma delimited format used in spreadsheet applications
http://www.bom.gov.au/fwo/IDT60701/IDT60701.95805.axf

JavaScript Object Notation format (JSON) in row-major order
http://www.bom.gov.au/fwo/IDT60701/IDT60701.95805.json

Data quality

Most of these data are generated automatically and are frequently updated. Quality checks on data are not normally performed. It is possible for incorrect values to appear. Refer to information at About Latest Weather Observations and please check the disclaimer before using these data.